KHOB/HOB METAR and TAF weather

Enter ICAO airport designator
Station Type Date Time Source
KHOB METAR 2019/10/23 02:35 UTC NOAA

KHOB 230235Z AUTO 21006KT 10SM CLR 13/M06 A3009 RMK AO2


Station Type Date Time Source
KHOB Decoded METAR 2019/10/23 02:35 UTC NOAA

Hobbs / Lea County, NM, United States (KHOB) 32-41N 103-13W
Oct 22, 2019 - 10:35 PM EDT / 2019.10.23 0235 UTC
Wind: from the SSW (210 degrees) at 7 MPH (6 KT):0
Visibility: 10 mile(s):0
Sky conditions: clear
Temperature: 55 F (13 C)
Dew Point: 21 F (-6 C)
Relative Humidity: 26%
Pressure (altimeter): 30.09 in. Hg (1018 hPa)
ob: KHOB 230235Z AUTO 21006KT 10SM CLR 13/M06 A3009 RMK AO2
cycle: 2

Station Type Date Time Source
KHOB TAF 2019/10/22 18:30 UTC NOAA

TAF KHOB 221727Z 2218/2318 20006KT P6SM SKC

Example: see airport list